createdAt,value
2023-01-28T00:01:47.446Z,95062.31
2023-01-28T00:04:16.781Z,95059.28
2023-01-28T00:06:45.097Z,95063.75
2023-01-28T00:09:13.345Z,95065.97
2023-01-28T00:11:41.300Z,95062.09
2023-01-28T00:14:09.538Z,95065.63
2023-01-28T00:16:37.525Z,95058.53
2023-01-28T00:19:05.543Z,95056.25
2023-01-28T00:21:35.346Z,95053.06
2023-01-28T00:24:03.691Z,95062.09
2023-01-28T00:26:31.683Z,95059.22
2023-01-28T00:28:59.665Z,95058.75
2023-01-28T00:31:28.705Z,95061.00
2023-01-28T00:33:57.921Z,95060.47
2023-01-28T00:36:27.342Z,95056.25
2023-01-28T00:38:58.765Z,95048.59
2023-01-28T00:41:29.551Z,95049.22
2023-01-28T00:43:59.933Z,95051.72
2023-01-28T00:46:28.033Z,95051.72
2023-01-28T00:48:56.250Z,95050.41
2023-01-28T00:51:24.437Z,95046.69
2023-01-28T00:53:53.021Z,95055.28
2023-01-28T00:56:22.386Z,95056.59
2023-01-28T00:58:50.517Z,95053.06
2023-01-28T01:01:20.946Z,95045.97
2023-01-28T01:03:57.481Z,95049.22
2023-01-28T01:06:26.359Z,95053.69
2023-01-28T01:08:54.292Z,95041.44
2023-01-28T01:11:23.702Z,95059.72
2023-01-28T01:13:54.904Z,95050.69
2023-01-28T01:16:24.415Z,95060.69
2023-01-28T01:18:53.713Z,95066.28
2023-01-28T01:21:24.428Z,95062.28
2023-01-28T01:23:53.505Z,95061.00
2023-01-28T01:26:25.320Z,95062.59
2023-01-28T01:28:53.540Z,95059.72
2023-01-28T01:31:23.236Z,95062.94
2023-01-28T01:33:53.024Z,95065.34
2023-01-28T01:36:22.333Z,95069.22
2023-01-28T01:38:54.734Z,95063.28
2023-01-28T01:41:29.822Z,95068.88
2023-01-28T01:44:00.104Z,95069.69
2023-01-28T01:46:36.386Z,95059.72
2023-01-28T01:49:14.201Z,95063.34
2023-01-28T01:51:42.687Z,95061.91
2023-01-28T01:54:10.906Z,95058.13
2023-01-28T01:56:44.282Z,95065.50
2023-01-28T01:59:15.242Z,95063.53
2023-01-28T02:01:45.708Z,95056.00
2023-01-28T02:04:19.091Z,95059.09
2023-01-28T02:06:48.327Z,95049.41
2023-01-28T02:09:25.425Z,95056.44
2023-01-28T02:11:58.008Z,95059.38
2023-01-28T02:14:31.666Z,95051.72
2023-01-28T02:17:01.497Z,95057.56
2023-01-28T02:19:37.829Z,95055.09
2023-01-28T02:22:44.791Z,95054.59
2023-01-28T02:25:35.932Z,95051.38
2023-01-28T02:28:21.171Z,95053.34
2023-01-28T02:30:55.583Z,95051.56
2023-01-28T02:33:35.691Z,95054.59
2023-01-28T02:36:13.568Z,95053.94
2023-01-28T02:38:44.812Z,95049.41
2023-01-28T02:41:20.381Z,95052.97
2023-01-28T02:43:51.745Z,95047.50
2023-01-28T02:46:40.937Z,95047.16
2023-01-28T02:49:13.466Z,95041.06
2023-01-28T02:51:55.979Z,95041.44
2023-01-28T02:54:35.644Z,95046.25
2023-01-28T02:57:15.513Z,95049.78
2023-01-28T02:59:52.858Z,95045.44
2023-01-28T03:02:30.346Z,95045.91
2023-01-28T03:05:04.464Z,95038.53
2023-01-28T03:07:36.890Z,95047.84
2023-01-28T03:10:07.858Z,95046.25
2023-01-28T03:12:57.907Z,95050.13
2023-01-28T03:15:48.348Z,95044.66
2023-01-28T03:18:38.989Z,95043.03
2023-01-28T03:21:27.931Z,95051.72
2023-01-28T03:24:18.972Z,95050.69
2023-01-28T03:27:12.089Z,95047.16
2023-01-28T03:30:00.717Z,95034.97
2023-01-28T03:32:48.875Z,95040.75
2023-01-28T03:35:36.798Z,95043.50
2023-01-28T03:38:18.157Z,95045.56
2023-01-28T03:40:53.422Z,95048.78
2023-01-28T03:43:21.547Z,95051.19
2023-01-28T03:45:51.509Z,95049.72
2023-01-28T03:48:22.065Z,95057.44
2023-01-28T03:50:51.039Z,95053.44
2023-01-28T03:53:19.958Z,95051.38
2023-01-28T03:55:50.885Z,95053.00
2023-01-28T03:58:19.906Z,95043.03
2023-01-28T04:00:47.999Z,95048.19
2023-01-28T04:03:18.623Z,95044.31
2023-01-28T04:06:02.018Z,95039.97
2023-01-28T04:08:53.146Z,95035.50
2023-01-28T04:11:32.413Z,95041.66
2023-01-28T04:14:03.448Z,95047.91
2023-01-28T04:16:43.195Z,95057.22
2023-01-28T04:19:12.348Z,95053.38
2023-01-28T04:21:42.217Z,95052.06
2023-01-28T04:24:11.080Z,95054.13
2023-01-28T04:26:40.251Z,95055.28
2023-01-28T04:29:08.648Z,95058.94
2023-01-28T04:31:38.314Z,95056.19
2023-01-28T04:34:24.438Z,95064.53
2023-01-28T04:37:14.165Z,95056.78
2023-01-28T04:40:08.286Z,95062.28
2023-01-28T04:42:57.639Z,95060.34
2023-01-28T04:45:44.112Z,95055.19
2023-01-28T04:48:31.447Z,95060.69
2023-01-28T04:51:18.253Z,95051.69
2023-01-28T04:54:12.541Z,95054.75
2023-01-28T04:56:40.616Z,95064.53
2023-01-28T04:59:08.891Z,95060.38
2023-01-28T05:01:37.184Z,95062.59
2023-01-28T05:04:06.477Z,95057.44
2023-01-28T05:06:37.927Z,95062.28
2023-01-28T05:09:12.172Z,95060.69
2023-01-28T05:11:41.710Z,95057.78
2023-01-28T05:14:09.758Z,95062.59
2023-01-28T05:16:51.427Z,95076.13
2023-01-28T05:19:20.822Z,95077.72
2023-01-28T05:21:49.059Z,95080.91
2023-01-28T05:24:44.649Z,95075.78
2023-01-28T05:27:13.177Z,95087.31
2023-01-28T05:29:41.253Z,95077.84
2023-01-28T05:32:09.262Z,95087.31
2023-01-28T05:34:37.368Z,95078.97
2023-01-28T05:37:11.311Z,95077.38
2023-01-28T05:39:40.290Z,95082.88
2023-01-28T05:42:09.687Z,95087.03
2023-01-28T05:44:43.559Z,95086.06
2023-01-28T05:47:17.844Z,95094.75
2023-01-28T05:49:46.518Z,95092.00
2023-01-28T05:52:33.035Z,95096.34
2023-01-28T05:55:01.964Z,95094.59
2023-01-28T05:57:31.680Z,95092.81
2023-01-28T05:59:59.739Z,95092.81
2023-01-28T06:02:28.144Z,95104.25
2023-01-28T06:04:58.807Z,95102.97
2023-01-28T06:07:26.817Z,95111.34
2023-01-28T06:09:54.833Z,95106.03
2023-01-28T06:12:23.177Z,95099.91
2023-01-28T06:15:15.375Z,95110.53
2023-01-28T06:18:00.451Z,95109.41
2023-01-28T06:20:30.911Z,95114.72
2023-01-28T06:22:59.912Z,95109.69
2023-01-28T06:25:28.264Z,95116.00
2023-01-28T06:28:00.823Z,95117.59
2023-01-28T06:30:30.295Z,95108.91
2023-01-28T06:32:58.258Z,95112.44
2023-01-28T06:35:26.335Z,95119.53
2023-01-28T06:37:54.794Z,95123.06
2023-01-28T06:40:23.158Z,95131.44
2023-01-28T06:42:51.115Z,95126.28
2023-01-28T06:45:19.116Z,95130.44
2023-01-28T06:47:48.462Z,95133.19
2023-01-28T06:50:16.854Z,95121.06
2023-01-28T06:52:44.940Z,95128.50
2023-01-28T06:55:13.073Z,95128.38
2023-01-28T06:57:41.930Z,95136.38
2023-01-28T07:00:12.915Z,95132.38
2023-01-28T07:02:41.255Z,95142.00
2023-01-28T07:05:11.820Z,95137.91
2023-01-28T07:07:41.867Z,95137.25
2023-01-28T07:10:11.830Z,95143.16
2023-01-28T07:12:39.926Z,95142.66
2023-01-28T07:15:10.912Z,95130.44
2023-01-28T07:17:40.703Z,95141.69
2023-01-28T07:20:13.727Z,95132.03
2023-01-28T07:22:43.057Z,95148.44
2023-01-28T07:25:12.455Z,95145.88
2023-01-28T07:27:40.805Z,95155.88
2023-01-28T07:30:10.300Z,95160.22
2023-01-28T07:32:38.227Z,95159.72
2023-01-28T07:35:07.275Z,95166.47
2023-01-28T07:37:36.758Z,95161.66
2023-01-28T07:40:05.221Z,95160.44
2023-01-28T07:42:33.418Z,95165.50
2023-01-28T07:45:06.502Z,95160.03
2023-01-28T07:47:34.503Z,95171.31
2023-01-28T07:50:02.472Z,95168.13
2023-01-28T07:52:30.477Z,95166.22
2023-01-28T07:54:59.799Z,95168.78
2023-01-28T07:57:30.231Z,95166.53
2023-01-28T07:59:58.596Z,95167.47
2023-01-28T08:02:26.685Z,95178.38
2023-01-28T08:04:54.731Z,95180.94
2023-01-28T08:07:22.951Z,95173.09
2023-01-28T08:09:52.172Z,95176.75
2023-01-28T08:12:21.495Z,95181.25
2023-01-28T08:14:49.477Z,95187.38
2023-01-28T08:17:17.458Z,95192.66
2023-01-28T08:19:45.412Z,95199.53
2023-01-28T08:22:13.368Z,95206.59
2023-01-28T08:24:41.378Z,95210.31
2023-01-28T08:27:09.351Z,95207.88
2023-01-28T08:29:38.690Z,95212.41
2023-01-28T08:32:06.733Z,95220.75
2023-01-28T08:34:34.686Z,95215.94
2023-01-28T08:37:02.690Z,95217.53
2023-01-28T08:39:30.644Z,95217.19
2023-01-28T08:41:58.597Z,95225.22
2023-01-28T08:44:26.636Z,95229.09
2023-01-28T08:46:55.964Z,95226.81
2023-01-28T08:49:24.190Z,95233.56
2023-01-28T08:51:52.264Z,95236.78
2023-01-28T08:54:20.227Z,95245.13
2023-01-28T08:56:48.824Z,95245.13
2023-01-28T08:59:16.927Z,95238.06
2023-01-28T09:01:44.945Z,95244.03
2023-01-28T09:04:14.291Z,95235.63
2023-01-28T09:06:42.251Z,95244.16
2023-01-28T09:09:10.317Z,95245.06
2023-01-28T09:11:38.295Z,95250.84
2023-01-28T09:14:06.258Z,95255.03
2023-01-28T09:16:34.249Z,95261.13
2023-01-28T09:19:02.192Z,95259.13
2023-01-28T09:21:31.684Z,95268.44
2023-01-28T09:23:59.837Z,95268.63
2023-01-28T09:26:27.855Z,95267.13
2023-01-28T09:28:56.169Z,95271.78
2023-01-28T09:31:24.439Z,95276.41
2023-01-28T09:33:56.703Z,95268.66
2023-01-28T09:36:25.071Z,95276.06
2023-01-28T09:38:54.654Z,95277.19
2023-01-28T09:41:28.280Z,95282.50
2023-01-28T09:44:08.075Z,95287.06
2023-01-28T09:46:38.579Z,95284.78
2023-01-28T09:49:18.753Z,95292.81
2023-01-28T09:51:50.398Z,95299.00
2023-01-28T09:54:28.249Z,95295.59
2023-01-28T09:57:05.340Z,95298.00
2023-01-28T09:59:37.029Z,95302.56
2023-01-28T10:02:23.538Z,95299.72
2023-01-28T10:05:00.391Z,95300.69
2023-01-28T10:07:43.754Z,95298.34
2023-01-28T10:10:17.435Z,95301.66
2023-01-28T10:13:04.886Z,95291.25
2023-01-28T10:15:57.661Z,95302.81
2023-01-28T10:18:34.654Z,95304.88
2023-01-28T10:21:10.327Z,95304.16
2023-01-28T10:23:47.594Z,95303.16
2023-01-28T10:26:24.251Z,95305.13
2023-01-28T10:28:56.948Z,95307.34
2023-01-28T10:31:32.411Z,95308.53
2023-01-28T10:34:01.743Z,95305.47
2023-01-28T10:36:30.663Z,95304.97
2023-01-28T10:38:58.960Z,95304.75
2023-01-28T10:41:28.290Z,95306.38
2023-01-28T10:43:58.408Z,95310.38
2023-01-28T10:46:31.604Z,95318.63
2023-01-28T10:49:07.246Z,95307.56
2023-01-28T10:51:36.920Z,95313.81
2023-01-28T10:54:06.043Z,95316.41
2023-01-28T10:56:36.610Z,95317.56
2023-01-28T10:59:06.411Z,95318.84
2023-01-28T11:01:44.928Z,95318.19
2023-01-28T11:04:19.931Z,95309.31
2023-01-28T11:07:00.696Z,95301.41
2023-01-28T11:09:31.924Z,95310.63
2023-01-28T11:12:12.888Z,95316.69
2023-01-28T11:14:51.421Z,95309.91
2023-01-28T11:17:21.477Z,95309.91
2023-01-28T11:19:50.105Z,95311.53
2023-01-28T11:22:34.000Z,95311.19
2023-01-28T11:25:04.001Z,95312.84
2023-01-28T11:27:34.919Z,95316.72
2023-01-28T11:30:04.801Z,95314.13
2023-01-28T11:32:32.947Z,95318.97
2023-01-28T11:35:01.380Z,95313.13
2023-01-28T11:37:30.771Z,95315.44
2023-01-28T11:40:21.465Z,95314.38
2023-01-28T11:42:53.644Z,95315.53
2023-01-28T11:45:33.193Z,95311.53
2023-01-28T11:48:28.253Z,95313.00
2023-01-28T11:51:01.197Z,95312.53
2023-01-28T11:53:51.140Z,95320.44
2023-01-28T11:56:33.933Z,95314.03
2023-01-28T11:59:20.825Z,95321.03
2023-01-28T12:01:57.287Z,95324.31
2023-01-28T12:04:41.758Z,95320.94
2023-01-28T12:07:23.236Z,95321.06
2023-01-28T12:09:58.023Z,95318.97
2023-01-28T12:13:05.541Z,95318.44
2023-01-28T12:15:53.035Z,95317.06
2023-01-28T12:18:32.581Z,95306.81
2023-01-28T12:21:09.324Z,95314.50
2023-01-28T12:23:53.105Z,95321.31
2023-01-28T12:26:31.806Z,95312.72
2023-01-28T12:29:13.134Z,95318.97
2023-01-28T12:32:09.655Z,95315.31
2023-01-28T12:34:56.675Z,95315.63
2023-01-28T12:37:34.727Z,95316.09
2023-01-28T12:40:15.237Z,95309.69
2023-01-28T12:42:49.483Z,95315.81
2023-01-28T12:45:22.983Z,95311.25
2023-01-28T12:47:57.012Z,95311.63
2023-01-28T12:50:28.764Z,95319.31
2023-01-28T12:53:01.754Z,95316.16
2023-01-28T12:55:41.409Z,95314.28
2023-01-28T12:58:18.544Z,95314.94
2023-01-28T13:00:51.846Z,95312.88
2023-01-28T13:03:29.083Z,95318.16
2023-01-28T13:06:01.781Z,95312.66
2023-01-28T13:08:31.046Z,95318.72
2023-01-28T13:11:01.071Z,95308.41
2023-01-28T13:13:33.525Z,95311.16
2023-01-28T13:16:03.004Z,95310.19
2023-01-28T13:18:45.283Z,95319.44
2023-01-28T13:21:40.141Z,95314.31
2023-01-28T13:24:23.783Z,95317.94
2023-01-28T13:26:53.474Z,95318.19
2023-01-28T13:29:30.363Z,95321.72
2023-01-28T13:32:00.126Z,95325.91
2023-01-28T13:34:38.046Z,95330.22
2023-01-28T13:37:18.730Z,95325.84
2023-01-28T13:39:53.284Z,95332.25
2023-01-28T13:42:26.790Z,95337.66
2023-01-28T13:44:55.441Z,95337.66
2023-01-28T13:47:31.233Z,95346.88
2023-01-28T13:50:04.557Z,95350.72
2023-01-28T13:52:35.416Z,95356.56
2023-01-28T13:55:07.742Z,95360.88
2023-01-28T13:57:54.721Z,95365.88
2023-01-28T14:00:28.645Z,95361.94
2023-01-28T14:03:31.484Z,95365.56
2023-01-28T14:06:24.995Z,95371.91
2023-01-28T14:09:19.381Z,95376.22
2023-01-28T14:12:11.431Z,95371.47
2023-01-28T14:15:19.568Z,95376.72
2023-01-28T14:17:49.973Z,95371.66
2023-01-28T14:20:21.681Z,95374.53
2023-01-28T14:22:51.807Z,95372.38
2023-01-28T14:25:30.503Z,95369.47
2023-01-28T14:28:01.826Z,95369.38
2023-01-28T14:30:38.491Z,95370.41
2023-01-28T14:33:11.935Z,95369.63
2023-01-28T14:35:45.354Z,95375.00
2023-01-28T14:38:18.407Z,95374.88
2023-01-28T14:40:46.985Z,95384.16
2023-01-28T14:43:19.351Z,95378.75
2023-01-28T14:46:05.062Z,95384.50
2023-01-28T14:48:39.144Z,95388.41
2023-01-28T14:51:20.587Z,95382.56
2023-01-28T14:54:27.535Z,95388.28
2023-01-28T14:57:13.892Z,95393.81
2023-01-28T14:59:47.298Z,95393.00
2023-01-28T15:02:20.923Z,95394.66
2023-01-28T15:04:49.351Z,95394.25
2023-01-28T15:07:19.700Z,95394.81
2023-01-28T15:09:49.668Z,95386.22
2023-01-28T15:12:18.749Z,95397.81
2023-01-28T15:14:48.712Z,95392.88
2023-01-28T15:17:26.375Z,95389.84
2023-01-28T15:19:57.085Z,95398.84
2023-01-28T15:22:28.817Z,95408.69
2023-01-28T15:24:58.554Z,95408.22
2023-01-28T15:27:29.928Z,95414.91
2023-01-28T15:30:00.149Z,95418.44
2023-01-28T15:32:29.551Z,95413.97
2023-01-28T15:35:00.361Z,95416.53
2023-01-28T15:37:28.864Z,95417.78
2023-01-28T15:40:07.212Z,95423.47
2023-01-28T15:42:36.034Z,95419.13
2023-01-28T15:45:04.592Z,95430.56
2023-01-28T15:47:35.314Z,95433.13
2023-01-28T15:50:08.508Z,95436.56
2023-01-28T15:52:39.070Z,95438.63
2023-01-28T15:55:29.598Z,95438.97
2023-01-28T15:57:57.657Z,95445.78
2023-01-28T16:00:26.783Z,95453.66
2023-01-28T16:02:56.480Z,95448.81
2023-01-28T16:05:27.872Z,95451.41
2023-01-28T16:07:57.558Z,95455.56
2023-01-28T16:10:29.610Z,95453.97
2023-01-28T16:13:07.362Z,95456.22
2023-01-28T16:15:36.709Z,95459.44
2023-01-28T16:18:05.362Z,95462.66
2023-01-28T16:20:34.060Z,95461.56
2023-01-28T16:23:04.851Z,95467.81
2023-01-28T16:25:36.888Z,95467.81
2023-01-28T16:28:21.260Z,95468.81
2023-01-28T16:30:49.292Z,95478.47
2023-01-28T16:33:20.516Z,95472.00
2023-01-28T16:36:05.513Z,95481.66
2023-01-28T16:38:35.622Z,95478.28
2023-01-28T16:41:05.170Z,95489.41
2023-01-28T16:46:09.280Z,95490.38
2023-01-28T16:48:37.934Z,95494.88
2023-01-28T16:51:06.194Z,95497.44
2023-01-28T16:53:35.172Z,95505.00
2023-01-28T16:56:07.111Z,95502.25
2023-01-28T16:58:36.713Z,95510.63
2023-01-28T17:01:04.753Z,95514.81
2023-01-28T17:03:32.794Z,95509.03
2023-01-28T17:06:00.819Z,95513.53
2023-01-28T17:08:28.793Z,95514.50
2023-01-28T17:10:57.489Z,95514.81
2023-01-28T17:13:27.280Z,95522.25
2023-01-28T17:15:55.250Z,95520.31
2023-01-28T17:18:46.867Z,95524.81
2023-01-28T17:21:15.952Z,95521.59
2023-01-28T17:23:43.902Z,95528.34
2023-01-28T17:26:14.135Z,95536.38
2023-01-28T17:28:44.194Z,95534.47
2023-01-28T17:31:14.035Z,95539.44
2023-01-28T17:33:42.863Z,95541.88
2023-01-28T17:36:11.423Z,95536.25
2023-01-28T17:38:39.479Z,95547.97
2023-01-28T17:41:10.207Z,95541.53
2023-01-28T17:43:38.245Z,95544.13
2023-01-28T17:46:13.691Z,95543.47
2023-01-28T17:48:42.833Z,95552.16
2023-01-28T17:51:10.876Z,95548.00
2023-01-28T17:53:38.907Z,95543.97
2023-01-28T17:56:07.570Z,95546.69
2023-01-28T17:58:35.543Z,95557.63
2023-01-28T18:01:09.850Z,95566.00
2023-01-28T18:03:39.329Z,95559.25
2023-01-28T18:06:07.578Z,95567.94
2023-01-28T18:08:36.109Z,95561.19
2023-01-28T18:11:04.239Z,95556.34
2023-01-28T18:13:32.919Z,95555.06
2023-01-28T18:16:00.875Z,95562.47
2023-01-28T18:18:28.988Z,95559.25
2023-01-28T18:21:02.581Z,95566.31
2023-01-28T18:23:30.600Z,95560.53
2023-01-28T18:25:59.484Z,95572.44
2023-01-28T18:28:27.842Z,95566.97
2023-01-28T18:30:56.015Z,95571.66
2023-01-28T18:33:24.773Z,95569.88
2023-01-28T18:35:52.736Z,95580.50
2023-01-28T18:38:22.084Z,95575.66
2023-01-28T18:40:55.013Z,95582.09
2023-01-28T18:43:23.609Z,95577.25
2023-01-28T18:45:52.188Z,95573.06
2023-01-28T18:48:20.749Z,95585.56
2023-01-28T18:50:51.517Z,95579.97
2023-01-28T18:53:21.288Z,95577.91
2023-01-28T18:55:50.042Z,95580.50
2023-01-28T18:58:18.222Z,95591.13
2023-01-28T19:00:46.332Z,95586.28
2023-01-28T19:03:14.363Z,95590.13
2023-01-28T19:05:42.351Z,95596.53
2023-01-28T19:08:10.543Z,95597.84
2023-01-28T19:10:39.921Z,95592.31
2023-01-28T19:13:07.958Z,95591.72
2023-01-28T19:15:35.924Z,95594.28
2023-01-28T19:18:04.248Z,95593.31
2023-01-28T19:20:32.231Z,95587.22
2023-01-28T19:23:00.241Z,95582.72
2023-01-28T19:25:28.254Z,95586.22
2023-01-28T19:27:57.596Z,95591.72
2023-01-28T19:30:25.632Z,95584.31
2023-01-28T19:32:54.076Z,95582.97
2023-01-28T19:35:22.520Z,95586.34
2023-01-28T19:37:50.481Z,95586.50
2023-01-28T19:40:18.892Z,95590.09
2023-01-28T19:42:46.951Z,95585.25
2023-01-28T19:45:16.696Z,95596.38
2023-01-28T19:47:44.808Z,95595.84
2023-01-28T19:50:13.063Z,95593.97
2023-01-28T19:52:41.089Z,95602.00
2023-01-28T19:55:10.145Z,95601.38
2023-01-28T19:57:38.125Z,95599.06
2023-01-28T20:00:07.404Z,95595.75
2023-01-28T20:02:36.802Z,95600.41
2023-01-28T20:05:05.580Z,95601.38
2023-01-28T20:07:33.693Z,95595.25
2023-01-28T20:10:01.724Z,95601.22
2023-01-28T20:12:29.666Z,95608.78
2023-01-28T20:14:57.606Z,95616.13
2023-01-28T20:17:28.599Z,95615.84
2023-01-28T20:19:58.024Z,95625.50
2023-01-28T20:22:26.009Z,95618.13
2023-01-28T20:24:57.257Z,95621.97
2023-01-28T20:27:25.718Z,95621.28
2023-01-28T20:29:53.944Z,95627.75
2023-01-28T20:32:23.186Z,95625.84
2023-01-28T20:34:52.552Z,95624.56
2023-01-28T20:37:21.913Z,95617.66
2023-01-28T20:39:49.887Z,95628.28
2023-01-28T20:42:17.879Z,95625.50
2023-01-28T20:44:45.862Z,95626.44
2023-01-28T20:47:13.806Z,95629.78
2023-01-28T20:49:41.868Z,95629.00
2023-01-28T20:52:09.816Z,95639.16
2023-01-28T20:54:39.185Z,95639.34
2023-01-28T20:57:07.158Z,95640.31
2023-01-28T20:59:35.142Z,95643.06
2023-01-28T21:02:03.115Z,95643.22
2023-01-28T21:04:31.047Z,95646.47
2023-01-28T21:06:59.030Z,95646.75
2023-01-28T21:09:27.909Z,95650.94
2023-01-28T21:11:57.242Z,95652.53
2023-01-28T21:14:25.329Z,95655.09
2023-01-28T21:16:53.552Z,95657.03
2023-01-28T21:19:21.660Z,95653.19
2023-01-28T21:21:49.683Z,95655.75
2023-01-28T21:24:17.742Z,95648.84
2023-01-28T21:26:45.710Z,95650.94
2023-01-28T21:29:17.535Z,95648.03
2023-01-28T21:31:45.869Z,95653.81
2023-01-28T21:34:14.552Z,95654.47
2023-01-28T21:36:42.589Z,95654.47
2023-01-28T21:39:11.067Z,95654.63
2023-01-28T21:41:39.028Z,95651.88
2023-01-28T21:44:07.004Z,95655.28
2023-01-28T21:46:36.375Z,95650.28
2023-01-28T21:49:06.233Z,95646.75
2023-01-28T21:51:39.299Z,95648.03
2023-01-28T21:54:10.673Z,95644.59
2023-01-28T21:56:38.724Z,95646.34
2023-01-28T21:59:24.575Z,95664.09
2023-01-28T22:01:54.016Z,95654.63
2023-01-28T22:04:22.113Z,95649.63
2023-01-28T22:06:50.066Z,95644.50
2023-01-28T22:09:18.084Z,95643.53
2023-01-28T22:11:46.855Z,95657.38
2023-01-28T22:14:14.874Z,95650.94
2023-01-28T22:16:43.965Z,95661.22
2023-01-28T22:19:14.567Z,95662.03
2023-01-28T22:21:44.828Z,95657.38
2023-01-28T22:24:14.846Z,95659.31
2023-01-28T22:26:43.537Z,95654.81
2023-01-28T22:29:12.439Z,95658.00
2023-01-28T22:31:40.584Z,95660.44
2023-01-28T22:34:08.913Z,95661.88
2023-01-28T22:36:38.288Z,95663.16
2023-01-28T22:39:08.453Z,95652.53
2023-01-28T22:41:36.421Z,95667.69
2023-01-28T22:44:04.767Z,95672.81
2023-01-28T22:46:34.627Z,95672.81
2023-01-28T22:49:03.204Z,95667.69
2023-01-28T22:51:33.450Z,95669.28
2023-01-28T22:54:03.383Z,95668.31
2023-01-28T22:56:32.961Z,95673.13
2023-01-28T22:59:03.368Z,95671.53
2023-01-28T23:01:32.189Z,95677.97
2023-01-28T23:04:00.177Z,95673.19
2023-01-28T23:06:30.036Z,95668.78
2023-01-28T23:08:58.100Z,95670.56
2023-01-28T23:11:28.219Z,95677.31
2023-01-28T23:14:16.410Z,95669.59
2023-01-28T23:17:02.004Z,95669.91
2023-01-28T23:19:47.720Z,95665.56
2023-01-28T23:22:40.182Z,95663.16
2023-01-28T23:25:09.015Z,95666.19
2023-01-28T23:27:38.448Z,95672.47
2023-01-28T23:30:09.980Z,95671.16
2023-01-28T23:32:40.101Z,95671.78
2023-01-28T23:35:08.680Z,95672.09
2023-01-28T23:37:36.683Z,95671.78
2023-01-28T23:40:05.168Z,95675.31
2023-01-28T23:42:33.173Z,95682.06
2023-01-28T23:45:02.525Z,95680.78
2023-01-28T23:47:30.481Z,95687.53
2023-01-28T23:49:58.575Z,95684.97
2023-01-28T23:52:26.785Z,95677.63
2023-01-28T23:54:54.901Z,95674.41
2023-01-28T23:57:22.884Z,95683.06
2023-01-28T23:59:51.579Z,95684.53
